This is the latest recevied weather packets stored in our database for station/object PP5MGT-13. If no packets are shown the sender has not sent any weather packets the latest 10 day(s).
| Time | Temp. | Humidity | Pressure | Rain* | Wind** | Luminosity | Snow |
|---|---|---|---|---|---|---|---|
| 1777918904 | 21.67° C | 68% | 1018.1 hPa | - | - | - | - |
| 1777913500 | 21.67° C | 66% | 1019.4 hPa | - | - | - | - |
| 1777912600 | 21.11° C | 66% | 1019.5 hPa | - | - | - | - |
| 1777911699 | 21.67° C | 65% | 1019.6 hPa | - | - | - | - |
| 1777910798 | 21.67° C | 65% | 1019.6 hPa | - | - | - | - |
| 1777909898 | 21.11° C | 67% | 1020.3 hPa | - | - | - | - |
| 1777908997 | 21.11° C | 67% | 1020.5 hPa | - | - | - | - |
| 1777899989 | 19.44° C | 71% | 1021.5 hPa | - | - | - | - |
| 1777898188 | 17.78° C | 80% | 1021.9 hPa | - | - | - | - |
| 1777897287 | 17.78° C | 80% | 1021.8 hPa | - | - | - | - |
| 1777895485 | 16.67° C | 81% | 1021.5 hPa | - | - | - | - |
| 1777893683 | 16.67° C | 82% | 1021.4 hPa | - | - | - | - |
| 1777891882 | 16.11° C | 88% | 1021.2 hPa | - | - | - | - |
| 1777890981 | 16.11° C | 89% | 1021.3 hPa | - | - | - | - |
| 1777888279 | 16.11° C | 87% | 1020.8 hPa | - | - | - | - |
| 1777887378 | 16.11° C | 86% | 1020.7 hPa | - | - | - | - |
| 1777886477 | 16.11° C | 86% | 1020.6 hPa | - | - | - | - |
| 1777885576 | 16.11° C | 86% | 1020.5 hPa | - | - | - | - |
| 1777883774 | 15.56° C | 90% | 1020.1 hPa | - | - | - | - |
| 1777880169 | 16.11° C | 90% | 1020 hPa | - | - | - | - |
| 1777879269 | 16.11° C | 90% | 1020.1 hPa | - | - | - | - |
| 1777878367 | 16.11° C | 90% | 1020.3 hPa | - | - | - | - |
| 1777877465 | 16.11° C | 90% | 1020.6 hPa | - | - | - | - |
| 1777875660 | 16.11° C | 89% | 1020.6 hPa | - | - | - | - |
| 1777873858 | 16.11° C | 89% | 1021 hPa | - | - | - | - |
* Rain since midnight (hover to see other rain measurements)
** Current wind speed in m/s (hover to see current wind gust speed)